sensor_id;sensor_type;location;lat;lon;timestamp;P1;durP1;ratioP1;P2;durP2;ratioP2
66739;SDS011;53653;52.188;8.602;2023-06-10T00:02:07;15.93;;;6.65;;
66739;SDS011;53653;52.188;8.602;2023-06-10T00:04:33;11.88;;;6.30;;
66739;SDS011;53653;52.188;8.602;2023-06-10T00:07:02;13.73;;;6.53;;
66739;SDS011;53653;52.188;8.602;2023-06-10T00:09:29;13.85;;;6.25;;
66739;SDS011;53653;52.188;8.602;2023-06-10T00:11:54;12.40;;;6.30;;
66739;SDS011;53653;52.188;8.602;2023-06-10T00:14:20;17.80;;;6.53;;
66739;SDS011;53653;52.188;8.602;2023-06-10T00:16:46;14.57;;;6.53;;
66739;SDS011;53653;52.188;8.602;2023-06-10T00:19:11;13.55;;;6.78;;
66739;SDS011;53653;52.188;8.602;2023-06-10T00:21:39;15.33;;;6.47;;
66739;SDS011;53653;52.188;8.602;2023-06-10T00:24:08;13.07;;;6.13;;
66739;SDS011;53653;52.188;8.602;2023-06-10T00:26:39;13.15;;;6.50;;
66739;SDS011;53653;52.188;8.602;2023-06-10T00:29:06;11.95;;;6.45;;
66739;SDS011;53653;52.188;8.602;2023-06-10T00:31:33;12.10;;;6.82;;
66739;SDS011;53653;52.188;8.602;2023-06-10T00:34:00;15.60;;;6.37;;
66739;SDS011;53653;52.188;8.602;2023-06-10T00:36:26;14.52;;;6.45;;
66739;SDS011;53653;52.188;8.602;2023-06-10T00:38:52;13.05;;;6.60;;
66739;SDS011;53653;52.188;8.602;2023-06-10T00:41:17;13.48;;;6.13;;
66739;SDS011;53653;52.188;8.602;2023-06-10T00:43:43;17.10;;;6.60;;
66739;SDS011;53653;52.188;8.602;2023-06-10T00:46:10;11.93;;;6.13;;
66739;SDS011;53653;52.188;8.602;2023-06-10T00:48:40;14.50;;;7.15;;
66739;SDS011;53653;52.188;8.602;2023-06-10T00:51:08;13.23;;;6.50;;
66739;SDS011;53653;52.188;8.602;2023-06-10T00:53:37;12.93;;;6.25;;
66739;SDS011;53653;52.188;8.602;2023-06-10T00:56:05;13.03;;;6.80;;
66739;SDS011;53653;52.188;8.602;2023-06-10T00:58:31;12.57;;;6.50;;
66739;SDS011;53653;52.188;8.602;2023-06-10T01:00:57;13.88;;;6.13;;
66739;SDS011;53653;52.188;8.602;2023-06-10T01:03:26;13.65;;;6.38;;
66739;SDS011;53653;52.188;8.602;2023-06-10T01:09:10;11.88;;;5.95;;
66739;SDS011;53653;52.188;8.602;2023-06-10T01:11:47;14.40;;;5.93;;
66739;SDS011;53653;52.188;8.602;2023-06-10T01:14:19;15.82;;;6.20;;
66739;SDS011;53653;52.188;8.602;2023-06-10T01:16:45;14.98;;;6.82;;
66739;SDS011;53653;52.188;8.602;2023-06-10T01:19:11;11.97;;;5.93;;
66739;SDS011;53653;52.188;8.602;2023-06-10T01:21:38;13.45;;;6.10;;
66739;SDS011;53653;52.188;8.602;2023-06-10T01:24:05;13.23;;;6.60;;
66739;SDS011;53653;52.188;8.602;2023-06-10T01:26:33;13.88;;;6.50;;
66739;SDS011;53653;52.188;8.602;2023-06-10T01:29:03;14.00;;;6.60;;
66739;SDS011;53653;52.188;8.602;2023-06-10T01:31:33;14.35;;;6.32;;
66739;SDS011;53653;52.188;8.602;2023-06-10T01:34:08;18.52;;;6.35;;
66739;SDS011;53653;52.188;8.602;2023-06-10T01:36:36;14.88;;;6.28;;
66739;SDS011;53653;52.188;8.602;2023-06-10T01:39:04;12.27;;;6.13;;
66739;SDS011;53653;52.188;8.602;2023-06-10T01:41:31;12.53;;;6.30;;
66739;SDS011;53653;52.188;8.602;2023-06-10T01:43:57;13.60;;;6.18;;
66739;SDS011;53653;52.188;8.602;2023-06-10T01:46:24;14.05;;;6.03;;
66739;SDS011;53653;52.188;8.602;2023-06-10T01:48:50;11.05;;;5.82;;
66739;SDS011;53653;52.188;8.602;2023-06-10T01:51:16;14.47;;;5.73;;
66739;SDS011;53653;52.188;8.602;2023-06-10T01:53:41;15.55;;;6.78;;
66739;SDS011;53653;52.188;8.602;2023-06-10T01:56:07;12.80;;;6.40;;
66739;SDS011;53653;52.188;8.602;2023-06-10T01:58:33;15.95;;;6.30;;
66739;SDS011;53653;52.188;8.602;2023-06-10T02:00:58;12.97;;;6.53;;
66739;SDS011;53653;52.188;8.602;2023-06-10T02:03:24;11.82;;;5.95;;
66739;SDS011;53653;52.188;8.602;2023-06-10T02:05:49;11.47;;;5.53;;
66739;SDS011;53653;52.188;8.602;2023-06-10T02:08:15;16.83;;;6.18;;
66739;SDS011;53653;52.188;8.602;2023-06-10T02:10:41;12.38;;;5.90;;
66739;SDS011;53653;52.188;8.602;2023-06-10T02:13:07;16.03;;;6.13;;
66739;SDS011;53653;52.188;8.602;2023-06-10T02:15:33;16.38;;;6.05;;
66739;SDS011;53653;52.188;8.602;2023-06-10T02:17:59;13.53;;;6.53;;
66739;SDS011;53653;52.188;8.602;2023-06-10T02:20:24;12.50;;;5.80;;
66739;SDS011;53653;52.188;8.602;2023-06-10T02:22:50;13.50;;;5.67;;
66739;SDS011;53653;52.188;8.602;2023-06-10T02:25:16;13.55;;;4.85;;
66739;SDS011;53653;52.188;8.602;2023-06-10T02:27:41;11.57;;;5.23;;
66739;SDS011;53653;52.188;8.602;2023-06-10T02:30:07;13.95;;;5.70;;
66739;SDS011;53653;52.188;8.602;2023-06-10T02:32:35;13.25;;;5.47;;
66739;SDS011;53653;52.188;8.602;2023-06-10T02:35:02;13.82;;;5.15;;
66739;SDS011;53653;52.188;8.602;2023-06-10T02:37:29;12.55;;;5.20;;
66739;SDS011;53653;52.188;8.602;2023-06-10T02:39:55;11.37;;;5.20;;
66739;SDS011;53653;52.188;8.602;2023-06-10T02:42:21;11.25;;;5.10;;
66739;SDS011;53653;52.188;8.602;2023-06-10T02:44:48;12.23;;;4.93;;
66739;SDS011;53653;52.188;8.602;2023-06-10T02:47:21;12.82;;;5.53;;
66739;SDS011;53653;52.188;8.602;2023-06-10T02:49:46;13.80;;;4.77;;
66739;SDS011;53653;52.188;8.602;2023-06-10T02:52:12;11.20;;;5.70;;
66739;SDS011;53653;52.188;8.602;2023-06-10T02:54:38;11.77;;;5.65;;
66739;SDS011;53653;52.188;8.602;2023-06-10T02:57:07;12.25;;;5.05;;
66739;SDS011;53653;52.188;8.602;2023-06-10T02:59:33;13.70;;;4.67;;
66739;SDS011;53653;52.188;8.602;2023-06-10T03:01:58;12.02;;;5.85;;
66739;SDS011;53653;52.188;8.602;2023-06-10T03:04:27;11.00;;;5.50;;
66739;SDS011;53653;52.188;8.602;2023-06-10T03:07:01;14.35;;;5.20;;
66739;SDS011;53653;52.188;8.602;2023-06-10T03:09:32;9.53;;;4.60;;
66739;SDS011;53653;52.188;8.602;2023-06-10T03:12:00;13.20;;;5.00;;
66739;SDS011;53653;52.188;8.602;2023-06-10T03:14:29;11.55;;;5.13;;
66739;SDS011;53653;52.188;8.602;2023-06-10T03:16:54;12.10;;;4.70;;
66739;SDS011;53653;52.188;8.602;2023-06-10T03:19:23;12.07;;;5.30;;
66739;SDS011;53653;52.188;8.602;2023-06-10T03:22:06;11.73;;;5.15;;
66739;SDS011;53653;52.188;8.602;2023-06-10T03:24:35;16.13;;;5.32;;
66739;SDS011;53653;52.188;8.602;2023-06-10T03:27:01;11.75;;;5.30;;
66739;SDS011;53653;52.188;8.602;2023-06-10T03:29:30;10.43;;;5.10;;
66739;SDS011;53653;52.188;8.602;2023-06-10T03:31:56;10.00;;;4.90;;
66739;SDS011;53653;52.188;8.602;2023-06-10T03:34:22;12.60;;;5.10;;
66739;SDS011;53653;52.188;8.602;2023-06-10T03:36:49;12.77;;;4.83;;
66739;SDS011;53653;52.188;8.602;2023-06-10T03:39:15;14.00;;;5.05;;
66739;SDS011;53653;52.188;8.602;2023-06-10T03:41:41;15.27;;;5.32;;
66739;SDS011;53653;52.188;8.602;2023-06-10T03:44:09;12.68;;;5.68;;
66739;SDS011;53653;52.188;8.602;2023-06-10T03:46:34;13.07;;;5.70;;
66739;SDS011;53653;52.188;8.602;2023-06-10T03:49:01;10.38;;;4.88;;
66739;SDS011;53653;52.188;8.602;2023-06-10T03:51:29;10.88;;;4.70;;
66739;SDS011;53653;52.188;8.602;2023-06-10T03:53:55;12.27;;;4.70;;
66739;SDS011;53653;52.188;8.602;2023-06-10T03:56:20;10.90;;;4.85;;
66739;SDS011;53653;52.188;8.602;2023-06-10T03:58:46;9.87;;;4.73;;
66739;SDS011;53653;52.188;8.602;2023-06-10T04:01:12;12.15;;;5.60;;
66739;SDS011;53653;52.188;8.602;2023-06-10T04:03:38;10.23;;;4.80;;
66739;SDS011;53653;52.188;8.602;2023-06-10T04:06:04;11.02;;;4.93;;
66739;SDS011;53653;52.188;8.602;2023-06-10T04:08:30;14.82;;;5.50;;
66739;SDS011;53653;52.188;8.602;2023-06-10T04:10:58;10.77;;;5.05;;
66739;SDS011;53653;52.188;8.602;2023-06-10T04:13:26;13.82;;;5.55;;
66739;SDS011;53653;52.188;8.602;2023-06-10T04:15:55;12.77;;;6.10;;
66739;SDS011;53653;52.188;8.602;2023-06-10T04:18:21;11.43;;;5.50;;
66739;SDS011;53653;52.188;8.602;2023-06-10T04:20:48;12.77;;;5.20;;
66739;SDS011;53653;52.188;8.602;2023-06-10T04:23:13;12.23;;;5.70;;
66739;SDS011;53653;52.188;8.602;2023-06-10T04:25:41;13.10;;;5.38;;
66739;SDS011;53653;52.188;8.602;2023-06-10T04:28:07;11.63;;;5.25;;
66739;SDS011;53653;52.188;8.602;2023-06-10T04:30:34;12.55;;;5.65;;
66739;SDS011;53653;52.188;8.602;2023-06-10T04:33:00;10.07;;;4.95;;
66739;SDS011;53653;52.188;8.602;2023-06-10T04:35:26;12.03;;;5.97;;
66739;SDS011;53653;52.188;8.602;2023-06-10T04:37:53;12.35;;;5.80;;
66739;SDS011;53653;52.188;8.602;2023-06-10T04:40:20;16.25;;;5.95;;
66739;SDS011;53653;52.188;8.602;2023-06-10T04:42:46;14.27;;;6.17;;
66739;SDS011;53653;52.188;8.602;2023-06-10T04:45:13;13.07;;;6.18;;
66739;SDS011;53653;52.188;8.602;2023-06-10T04:47:39;11.02;;;5.38;;
66739;SDS011;53653;52.188;8.602;2023-06-10T04:50:05;14.68;;;6.05;;
66739;SDS011;53653;52.188;8.602;2023-06-10T04:52:32;12.50;;;6.32;;
66739;SDS011;53653;52.188;8.602;2023-06-10T04:54:59;11.67;;;5.97;;
66739;SDS011;53653;52.188;8.602;2023-06-10T04:57:24;14.40;;;6.03;;
66739;SDS011;53653;52.188;8.602;2023-06-10T04:59:51;14.80;;;5.85;;
66739;SDS011;53653;52.188;8.602;2023-06-10T05:02:18;14.05;;;6.07;;
66739;SDS011;53653;52.188;8.602;2023-06-10T05:04:43;12.87;;;6.10;;
66739;SDS011;53653;52.188;8.602;2023-06-10T05:07:09;12.47;;;5.90;;
66739;SDS011;53653;52.188;8.602;2023-06-10T05:09:34;11.87;;;5.73;;
66739;SDS011;53653;52.188;8.602;2023-06-10T05:12:01;12.32;;;6.07;;
66739;SDS011;53653;52.188;8.602;2023-06-10T05:14:27;12.02;;;5.75;;
66739;SDS011;53653;52.188;8.602;2023-06-10T05:16:52;13.50;;;5.80;;
66739;SDS011;53653;52.188;8.602;2023-06-10T05:19:18;11.20;;;5.80;;
66739;SDS011;53653;52.188;8.602;2023-06-10T05:21:44;13.75;;;6.72;;
66739;SDS011;53653;52.188;8.602;2023-06-10T05:24:10;12.98;;;6.40;;
66739;SDS011;53653;52.188;8.602;2023-06-10T05:26:36;13.25;;;6.07;;
66739;SDS011;53653;52.188;8.602;2023-06-10T05:29:07;13.43;;;7.00;;
66739;SDS011;53653;52.188;8.602;2023-06-10T05:31:34;18.90;;;6.68;;
66739;SDS011;53653;52.188;8.602;2023-06-10T05:34:00;17.45;;;6.32;;
66739;SDS011;53653;52.188;8.602;2023-06-10T05:36:25;15.70;;;6.30;;
66739;SDS011;53653;52.188;8.602;2023-06-10T05:38:51;11.10;;;6.00;;
66739;SDS011;53653;52.188;8.602;2023-06-10T05:41:17;10.60;;;6.00;;
66739;SDS011;53653;52.188;8.602;2023-06-10T05:43:42;11.30;;;5.40;;
66739;SDS011;53653;52.188;8.602;2023-06-10T05:46:08;10.10;;;5.53;;
66739;SDS011;53653;52.188;8.602;2023-06-10T05:48:34;12.30;;;6.10;;
66739;SDS011;53653;52.188;8.602;2023-06-10T05:50:59;13.87;;;5.90;;
66739;SDS011;53653;52.188;8.602;2023-06-10T05:53:25;13.23;;;5.73;;
66739;SDS011;53653;52.188;8.602;2023-06-10T05:55:50;11.33;;;5.40;;
66739;SDS011;53653;52.188;8.602;2023-06-10T05:58:17;12.95;;;6.47;;
66739;SDS011;53653;52.188;8.602;2023-06-10T06:00:43;14.90;;;5.83;;
66739;SDS011;53653;52.188;8.602;2023-06-10T06:03:08;12.87;;;5.77;;
66739;SDS011;53653;52.188;8.602;2023-06-10T06:05:34;11.73;;;5.63;;
66739;SDS011;53653;52.188;8.602;2023-06-10T06:08:03;10.38;;;5.70;;
66739;SDS011;53653;52.188;8.602;2023-06-10T06:10:35;14.07;;;6.15;;
66739;SDS011;53653;52.188;8.602;2023-06-10T06:13:01;11.87;;;6.43;;
66739;SDS011;53653;52.188;8.602;2023-06-10T06:15:27;12.38;;;6.50;;
66739;SDS011;53653;52.188;8.602;2023-06-10T06:17:53;15.03;;;5.90;;
66739;SDS011;53653;52.188;8.602;2023-06-10T06:20:21;14.43;;;6.10;;
66739;SDS011;53653;52.188;8.602;2023-06-10T06:22:47;10.40;;;5.95;;
66739;SDS011;53653;52.188;8.602;2023-06-10T06:25:13;13.60;;;6.03;;
66739;SDS011;53653;52.188;8.602;2023-06-10T06:27:39;11.77;;;6.20;;
66739;SDS011;53653;52.188;8.602;2023-06-10T06:30:04;12.67;;;6.03;;
66739;SDS011;53653;52.188;8.602;2023-06-10T06:32:31;12.68;;;6.32;;
66739;SDS011;53653;52.188;8.602;2023-06-10T06:34:57;14.10;;;6.03;;
66739;SDS011;53653;52.188;8.602;2023-06-10T06:37:23;12.80;;;6.07;;
66739;SDS011;53653;52.188;8.602;2023-06-10T06:39:57;16.33;;;6.80;;
66739;SDS011;53653;52.188;8.602;2023-06-10T06:42:23;13.18;;;6.60;;
66739;SDS011;53653;52.188;8.602;2023-06-10T06:45:24;11.48;;;6.18;;
66739;SDS011;53653;52.188;8.602;2023-06-10T06:47:49;11.50;;;5.90;;
66739;SDS011;53653;52.188;8.602;2023-06-10T06:50:15;12.50;;;5.97;;
66739;SDS011;53653;52.188;8.602;2023-06-10T06:52:41;13.80;;;6.18;;
66739;SDS011;53653;52.188;8.602;2023-06-10T06:55:07;13.17;;;6.10;;
66739;SDS011;53653;52.188;8.602;2023-06-10T06:57:33;12.15;;;6.10;;
66739;SDS011;53653;52.188;8.602;2023-06-10T06:59:58;12.20;;;6.43;;
66739;SDS011;53653;52.188;8.602;2023-06-10T07:02:24;13.13;;;6.07;;
66739;SDS011;53653;52.188;8.602;2023-06-10T07:04:50;12.80;;;6.53;;
66739;SDS011;53653;52.188;8.602;2023-06-10T07:07:15;15.73;;;6.30;;
66739;SDS011;53653;52.188;8.602;2023-06-10T07:09:41;13.95;;;5.85;;
66739;SDS011;53653;52.188;8.602;2023-06-10T07:12:06;13.40;;;6.70;;
66739;SDS011;53653;52.188;8.602;2023-06-10T07:14:32;13.88;;;6.18;;
66739;SDS011;53653;52.188;8.602;2023-06-10T07:16:58;16.17;;;6.30;;
66739;SDS011;53653;52.188;8.602;2023-06-10T07:19:23;12.90;;;6.00;;
66739;SDS011;53653;52.188;8.602;2023-06-10T07:21:49;11.82;;;5.63;;
66739;SDS011;53653;52.188;8.602;2023-06-10T07:24:15;11.60;;;5.47;;
66739;SDS011;53653;52.188;8.602;2023-06-10T07:26:40;11.40;;;4.95;;
66739;SDS011;53653;52.188;8.602;2023-06-10T07:29:05;12.07;;;5.17;;
66739;SDS011;53653;52.188;8.602;2023-06-10T07:31:31;11.23;;;5.60;;
66739;SDS011;53653;52.188;8.602;2023-06-10T07:33:56;10.43;;;5.00;;
66739;SDS011;53653;52.188;8.602;2023-06-10T07:36:22;11.55;;;5.50;;
66739;SDS011;53653;52.188;8.602;2023-06-10T07:38:48;10.10;;;5.33;;
66739;SDS011;53653;52.188;8.602;2023-06-10T07:41:13;11.57;;;5.38;;
66739;SDS011;53653;52.188;8.602;2023-06-10T07:43:39;12.00;;;5.70;;
66739;SDS011;53653;52.188;8.602;2023-06-10T07:46:05;11.38;;;5.63;;
66739;SDS011;53653;52.188;8.602;2023-06-10T07:48:31;10.67;;;5.47;;
66739;SDS011;53653;52.188;8.602;2023-06-10T07:50:56;10.60;;;5.38;;
66739;SDS011;53653;52.188;8.602;2023-06-10T07:53:22;12.37;;;5.40;;
66739;SDS011;53653;52.188;8.602;2023-06-10T07:55:47;12.68;;;4.93;;
66739;SDS011;53653;52.188;8.602;2023-06-10T07:58:13;13.37;;;5.70;;
66739;SDS011;53653;52.188;8.602;2023-06-10T08:00:38;11.27;;;5.43;;
66739;SDS011;53653;52.188;8.602;2023-06-10T08:03:04;11.93;;;5.35;;
66739;SDS011;53653;52.188;8.602;2023-06-10T08:05:29;15.10;;;5.63;;
66739;SDS011;53653;52.188;8.602;2023-06-10T08:07:56;14.25;;;6.43;;
66739;SDS011;53653;52.188;8.602;2023-06-10T08:10:22;10.90;;;5.87;;
66739;SDS011;53653;52.188;8.602;2023-06-10T08:12:47;13.07;;;4.97;;
66739;SDS011;53653;52.188;8.602;2023-06-10T08:15:13;11.27;;;6.03;;
66739;SDS011;53653;52.188;8.602;2023-06-10T08:17:39;11.33;;;5.43;;
66739;SDS011;53653;52.188;8.602;2023-06-10T08:20:05;12.83;;;5.97;;
66739;SDS011;53653;52.188;8.602;2023-06-10T08:22:31;13.80;;;6.53;;
66739;SDS011;53653;52.188;8.602;2023-06-10T08:24:56;18.10;;;5.80;;
66739;SDS011;53653;52.188;8.602;2023-06-10T08:27:22;12.00;;;5.70;;
66739;SDS011;53653;52.188;8.602;2023-06-10T08:29:48;14.67;;;5.83;;
66739;SDS011;53653;52.188;8.602;2023-06-10T08:32:13;10.07;;;4.95;;
66739;SDS011;53653;52.188;8.602;2023-06-10T08:34:39;11.20;;;6.00;;
66739;SDS011;53653;52.188;8.602;2023-06-10T08:37:04;13.20;;;5.87;;
66739;SDS011;53653;52.188;8.602;2023-06-10T08:39:30;13.52;;;6.00;;
66739;SDS011;53653;52.188;8.602;2023-06-10T08:44:25;12.75;;;5.85;;
66739;SDS011;53653;52.188;8.602;2023-06-10T08:46:53;15.03;;;5.97;;
66739;SDS011;53653;52.188;8.602;2023-06-10T08:49:21;11.65;;;6.00;;
66739;SDS011;53653;52.188;8.602;2023-06-10T08:51:50;15.48;;;6.85;;
66739;SDS011;53653;52.188;8.602;2023-06-10T08:54:17;13.10;;;5.57;;
66739;SDS011;53653;52.188;8.602;2023-06-10T08:56:48;11.65;;;5.40;;
66739;SDS011;53653;52.188;8.602;2023-06-10T08:59:15;12.03;;;6.30;;
66739;SDS011;53653;52.188;8.602;2023-06-10T09:01:42;13.68;;;6.10;;
66739;SDS011;53653;52.188;8.602;2023-06-10T09:04:09;11.15;;;5.65;;
66739;SDS011;53653;52.188;8.602;2023-06-10T09:06:35;11.88;;;5.88;;
66739;SDS011;53653;52.188;8.602;2023-06-10T09:09:02;11.60;;;5.97;;
66739;SDS011;53653;52.188;8.602;2023-06-10T09:11:28;10.77;;;4.97;;
66739;SDS011;53653;52.188;8.602;2023-06-10T09:13:54;14.38;;;6.18;;
66739;SDS011;53653;52.188;8.602;2023-06-10T09:16:19;14.48;;;6.47;;
66739;SDS011;53653;52.188;8.602;2023-06-10T09:18:45;11.90;;;6.00;;
66739;SDS011;53653;52.188;8.602;2023-06-10T09:21:10;13.15;;;6.28;;
66739;SDS011;53653;52.188;8.602;2023-06-10T09:23:37;11.27;;;6.90;;
66739;SDS011;53653;52.188;8.602;2023-06-10T09:26:02;15.93;;;6.85;;
66739;SDS011;53653;52.188;8.602;2023-06-10T09:28:35;13.35;;;6.68;;
66739;SDS011;53653;52.188;8.602;2023-06-10T09:31:02;14.67;;;6.60;;
66739;SDS011;53653;52.188;8.602;2023-06-10T09:33:29;12.13;;;6.30;;
66739;SDS011;53653;52.188;8.602;2023-06-10T09:35:55;13.55;;;7.22;;
66739;SDS011;53653;52.188;8.602;2023-06-10T09:38:29;13.10;;;7.03;;
66739;SDS011;53653;52.188;8.602;2023-06-10T09:40:57;14.68;;;7.20;;
66739;SDS011;53653;52.188;8.602;2023-06-10T09:43:22;12.57;;;6.40;;
66739;SDS011;53653;52.188;8.602;2023-06-10T09:45:51;13.23;;;6.27;;
66739;SDS011;53653;52.188;8.602;2023-06-10T09:48:19;15.07;;;7.18;;
66739;SDS011;53653;52.188;8.602;2023-06-10T09:50:45;14.17;;;7.13;;
66739;SDS011;53653;52.188;8.602;2023-06-10T09:53:11;11.38;;;6.72;;
66739;SDS011;53653;52.188;8.602;2023-06-10T09:55:38;12.23;;;6.90;;
66739;SDS011;53653;52.188;8.602;2023-06-10T09:58:04;11.77;;;6.07;;
66739;SDS011;53653;52.188;8.602;2023-06-10T10:00:31;12.57;;;6.90;;
66739;SDS011;53653;52.188;8.602;2023-06-10T10:02:58;15.00;;;7.55;;
66739;SDS011;53653;52.188;8.602;2023-06-10T10:05:24;12.88;;;7.30;;
66739;SDS011;53653;52.188;8.602;2023-06-10T10:07:51;16.27;;;7.50;;
66739;SDS011;53653;52.188;8.602;2023-06-10T10:10:19;13.17;;;7.73;;
66739;SDS011;53653;52.188;8.602;2023-06-10T10:12:50;12.23;;;7.03;;
66739;SDS011;53653;52.188;8.602;2023-06-10T10:15:20;12.82;;;7.65;;
66739;SDS011;53653;52.188;8.602;2023-06-10T10:20:33;12.32;;;6.45;;
66739;SDS011;53653;52.188;8.602;2023-06-10T10:23:02;11.67;;;5.73;;
66739;SDS011;53653;52.188;8.602;2023-06-10T10:25:30;18.65;;;8.05;;
66739;SDS011;53653;52.188;8.602;2023-06-10T10:28:07;14.52;;;6.88;;
66739;SDS011;53653;52.188;8.602;2023-06-10T10:30:37;15.45;;;7.07;;
66739;SDS011;53653;52.188;8.602;2023-06-10T10:36:14;13.83;;;6.20;;
66739;SDS011;53653;52.188;8.602;2023-06-10T10:38:41;14.57;;;6.50;;
66739;SDS011;53653;52.188;8.602;2023-06-10T10:41:06;12.73;;;5.82;;
66739;SDS011;53653;52.188;8.602;2023-06-10T10:43:32;10.50;;;6.03;;
66739;SDS011;53653;52.188;8.602;2023-06-10T10:45:59;11.68;;;6.47;;
66739;SDS011;53653;52.188;8.602;2023-06-10T10:48:26;12.07;;;6.13;;
66739;SDS011;53653;52.188;8.602;2023-06-10T10:50:57;12.30;;;6.35;;
66739;SDS011;53653;52.188;8.602;2023-06-10T10:53:24;11.45;;;6.03;;
66739;SDS011;53653;52.188;8.602;2023-06-10T10:56:12;11.95;;;6.25;;
66739;SDS011;53653;52.188;8.602;2023-06-10T10:58:39;12.73;;;5.67;;
66739;SDS011;53653;52.188;8.602;2023-06-10T11:01:11;8.82;;;4.95;;
66739;SDS011;53653;52.188;8.602;2023-06-10T11:03:44;12.00;;;5.60;;
66739;SDS011;53653;52.188;8.602;2023-06-10T11:06:12;10.07;;;5.32;;
66739;SDS011;53653;52.188;8.602;2023-06-10T11:11:18;9.35;;;5.82;;
66739;SDS011;53653;52.188;8.602;2023-06-10T11:16:27;11.80;;;5.90;;
66739;SDS011;53653;52.188;8.602;2023-06-10T11:18:54;10.40;;;5.33;;
66739;SDS011;53653;52.188;8.602;2023-06-10T11:21:20;9.90;;;4.93;;
66739;SDS011;53653;52.188;8.602;2023-06-10T11:23:48;12.43;;;4.88;;
66739;SDS011;53653;52.188;8.602;2023-06-10T11:29:03;9.80;;;5.00;;
66739;SDS011;53653;52.188;8.602;2023-06-10T11:31:40;12.27;;;5.03;;
66739;SDS011;53653;52.188;8.602;2023-06-10T11:34:08;9.20;;;4.32;;
66739;SDS011;53653;52.188;8.602;2023-06-10T11:36:34;15.43;;;5.63;;
66739;SDS011;53653;52.188;8.602;2023-06-10T11:39:06;10.38;;;5.10;;
66739;SDS011;53653;52.188;8.602;2023-06-10T11:41:32;11.32;;;4.70;;
66739;SDS011;53653;52.188;8.602;2023-06-10T11:44:16;9.30;;;4.83;;
66739;SDS011;53653;52.188;8.602;2023-06-10T11:46:42;10.75;;;4.85;;
66739;SDS011;53653;52.188;8.602;2023-06-10T11:49:08;9.82;;;4.90;;
66739;SDS011;53653;52.188;8.602;2023-06-10T11:51:37;8.07;;;4.30;;
66739;SDS011;53653;52.188;8.602;2023-06-10T11:54:04;10.95;;;4.82;;
66739;SDS011;53653;52.188;8.602;2023-06-10T11:56:30;8.52;;;4.20;;
66739;SDS011;53653;52.188;8.602;2023-06-10T11:59:03;10.20;;;4.60;;
66739;SDS011;53653;52.188;8.602;2023-06-10T12:01:33;10.95;;;5.63;;
66739;SDS011;53653;52.188;8.602;2023-06-10T12:04:08;9.27;;;4.97;;
66739;SDS011;53653;52.188;8.602;2023-06-10T12:06:39;10.80;;;4.95;;
66739;SDS011;53653;52.188;8.602;2023-06-10T12:09:21;9.93;;;4.63;;
66739;SDS011;53653;52.188;8.602;2023-06-10T12:19:58;10.02;;;5.35;;
66739;SDS011;53653;52.188;8.602;2023-06-10T12:22:36;8.50;;;4.25;;
66739;SDS011;53653;52.188;8.602;2023-06-10T12:25:03;8.80;;;3.58;;
66739;SDS011;53653;52.188;8.602;2023-06-10T12:27:32;9.98;;;4.68;;
66739;SDS011;53653;52.188;8.602;2023-06-10T12:29:59;10.20;;;4.87;;
66739;SDS011;53653;52.188;8.602;2023-06-10T12:32:40;11.18;;;4.70;;
66739;SDS011;53653;52.188;8.602;2023-06-10T12:35:08;9.88;;;5.40;;
66739;SDS011;53653;52.188;8.602;2023-06-10T12:37:35;8.63;;;4.85;;
66739;SDS011;53653;52.188;8.602;2023-06-10T12:40:03;9.32;;;5.18;;
66739;SDS011;53653;52.188;8.602;2023-06-10T12:42:29;11.63;;;5.70;;
66739;SDS011;53653;52.188;8.602;2023-06-10T12:44:56;9.52;;;5.05;;
66739;SDS011;53653;52.188;8.602;2023-06-10T12:47:31;11.90;;;5.30;;
66739;SDS011;53653;52.188;8.602;2023-06-10T12:50:00;9.95;;;5.75;;
66739;SDS011;53653;52.188;8.602;2023-06-10T12:52:26;10.05;;;5.78;;
66739;SDS011;53653;52.188;8.602;2023-06-10T12:54:52;8.67;;;4.60;;
66739;SDS011;53653;52.188;8.602;2023-06-10T12:57:19;10.45;;;4.95;;
66739;SDS011;53653;52.188;8.602;2023-06-10T12:59:46;7.55;;;4.05;;
66739;SDS011;53653;52.188;8.602;2023-06-10T13:02:17;9.85;;;5.22;;
66739;SDS011;53653;52.188;8.602;2023-06-10T13:04:46;9.20;;;5.00;;
66739;SDS011;53653;52.188;8.602;2023-06-10T13:07:12;9.85;;;4.63;;
66739;SDS011;53653;52.188;8.602;2023-06-10T13:09:38;9.88;;;5.00;;
66739;SDS011;53653;52.188;8.602;2023-06-10T13:12:04;13.07;;;5.70;;
66739;SDS011;53653;52.188;8.602;2023-06-10T13:14:31;8.27;;;4.57;;
66739;SDS011;53653;52.188;8.602;2023-06-10T13:16:57;13.60;;;6.20;;
66739;SDS011;53653;52.188;8.602;2023-06-10T13:19:22;12.47;;;5.73;;
66739;SDS011;53653;52.188;8.602;2023-06-10T13:21:48;10.88;;;5.95;;
66739;SDS011;53653;52.188;8.602;2023-06-10T13:24:13;13.37;;;5.63;;
66739;SDS011;53653;52.188;8.602;2023-06-10T13:26:39;9.50;;;4.90;;
66739;SDS011;53653;52.188;8.602;2023-06-10T13:29:05;12.68;;;5.85;;
66739;SDS011;53653;52.188;8.602;2023-06-10T13:31:30;12.87;;;5.73;;
66739;SDS011;53653;52.188;8.602;2023-06-10T13:33:57;14.50;;;6.20;;
66739;SDS011;53653;52.188;8.602;2023-06-10T13:36:23;11.27;;;6.13;;
66739;SDS011;53653;52.188;8.602;2023-06-10T13:38:49;10.17;;;6.40;;
66739;SDS011;53653;52.188;8.602;2023-06-10T13:41:14;10.05;;;6.10;;
66739;SDS011;53653;52.188;8.602;2023-06-10T13:43:40;13.70;;;6.60;;
66739;SDS011;53653;52.188;8.602;2023-06-10T13:46:05;12.97;;;6.50;;
66739;SDS011;53653;52.188;8.602;2023-06-10T13:48:31;9.35;;;6.28;;
66739;SDS011;53653;52.188;8.602;2023-06-10T13:50:58;13.77;;;6.65;;
66739;SDS011;53653;52.188;8.602;2023-06-10T13:53:25;11.13;;;6.07;;
66739;SDS011;53653;52.188;8.602;2023-06-10T13:55:51;14.02;;;6.32;;
66739;SDS011;53653;52.188;8.602;2023-06-10T13:58:16;14.23;;;6.57;;
66739;SDS011;53653;52.188;8.602;2023-06-10T14:00:42;11.83;;;6.30;;
66739;SDS011;53653;52.188;8.602;2023-06-10T14:03:08;12.17;;;6.23;;
66739;SDS011;53653;52.188;8.602;2023-06-10T14:05:33;10.57;;;6.13;;
66739;SDS011;53653;52.188;8.602;2023-06-10T14:07:59;14.00;;;6.57;;
66739;SDS011;53653;52.188;8.602;2023-06-10T14:10:25;13.87;;;7.00;;
66739;SDS011;53653;52.188;8.602;2023-06-10T14:12:50;11.95;;;6.18;;
66739;SDS011;53653;52.188;8.602;2023-06-10T14:15:16;11.83;;;6.60;;
66739;SDS011;53653;52.188;8.602;2023-06-10T14:17:42;15.20;;;7.65;;
66739;SDS011;53653;52.188;8.602;2023-06-10T14:20:08;11.17;;;7.30;;
66739;SDS011;53653;52.188;8.602;2023-06-10T14:22:34;12.02;;;7.78;;
66739;SDS011;53653;52.188;8.602;2023-06-10T14:24:59;14.32;;;7.28;;
66739;SDS011;53653;52.188;8.602;2023-06-10T14:27:25;14.23;;;6.87;;
66739;SDS011;53653;52.188;8.602;2023-06-10T14:29:50;10.70;;;7.13;;
66739;SDS011;53653;52.188;8.602;2023-06-10T14:32:16;11.48;;;7.38;;
66739;SDS011;53653;52.188;8.602;2023-06-10T14:34:42;10.40;;;6.70;;
66739;SDS011;53653;52.188;8.602;2023-06-10T14:37:09;11.15;;;7.20;;
66739;SDS011;53653;52.188;8.602;2023-06-10T14:39:35;16.33;;;7.70;;
66739;SDS011;53653;52.188;8.602;2023-06-10T14:42:01;9.05;;;6.50;;
66739;SDS011;53653;52.188;8.602;2023-06-10T14:44:27;12.70;;;7.70;;
66739;SDS011;53653;52.188;8.602;2023-06-10T14:46:52;11.07;;;7.30;;
66739;SDS011;53653;52.188;8.602;2023-06-10T14:49:18;10.57;;;7.13;;
66739;SDS011;53653;52.188;8.602;2023-06-10T14:51:43;13.00;;;7.93;;
66739;SDS011;53653;52.188;8.602;2023-06-10T14:54:10;11.40;;;7.50;;
66739;SDS011;53653;52.188;8.602;2023-06-10T14:56:35;14.32;;;7.93;;
66739;SDS011;53653;52.188;8.602;2023-06-10T14:59:01;12.52;;;7.95;;
66739;SDS011;53653;52.188;8.602;2023-06-10T15:01:27;15.93;;;7.90;;
66739;SDS011;53653;52.188;8.602;2023-06-10T15:03:52;13.80;;;7.95;;